sensor_id;sensor_type;location;lat;lon;timestamp;pressure;altitude;pressure_sealevel;temperature;humidity
74778;BME280;63298;53.164;8.610;2024-01-11T00:01:57;103628.31;;;-4.14;76.11
74778;BME280;63298;53.164;8.610;2024-01-11T00:04:23;103629.34;;;-4.17;76.52
74778;BME280;63298;53.164;8.610;2024-01-11T00:06:50;103641.34;;;-4.24;76.53
74778;BME280;63298;53.164;8.610;2024-01-11T00:09:21;103637.22;;;-4.31;77.99
74778;BME280;63298;53.164;8.610;2024-01-11T00:11:49;103643.41;;;-4.29;77.25
74778;BME280;63298;53.164;8.610;2024-01-11T00:14:14;103636.94;;;-4.25;77.09
74778;BME280;63298;53.164;8.610;2024-01-11T00:16:59;103641.22;;;-4.21;77.33
74778;BME280;63298;53.164;8.610;2024-01-11T00:19:24;103637.72;;;-4.23;77.11
74778;BME280;63298;53.164;8.610;2024-01-11T00:22:05;103632.28;;;-4.21;76.27
74778;BME280;63298;53.164;8.610;2024-01-11T00:24:34;103635.03;;;-4.23;76.79
74778;BME280;63298;53.164;8.610;2024-01-11T00:27:05;103621.34;;;-4.37;76.45
74778;BME280;63298;53.164;8.610;2024-01-11T00:29:31;103641.88;;;-4.34;77.10
74778;BME280;63298;53.164;8.610;2024-01-11T00:31:59;103623.31;;;-4.41;77.79
74778;BME280;63298;53.164;8.610;2024-01-11T00:34:24;103612.66;;;-4.44;76.93
74778;BME280;63298;53.164;8.610;2024-01-11T00:37:09;103614.50;;;-4.44;76.80
74778;BME280;63298;53.164;8.610;2024-01-11T00:39:35;103625.06;;;-4.40;76.79
74778;BME280;63298;53.164;8.610;2024-01-11T00:42:02;103633.38;;;-4.44;77.17
74778;BME280;63298;53.164;8.610;2024-01-11T00:44:28;103629.13;;;-4.50;77.13
74778;BME280;63298;53.164;8.610;2024-01-11T00:46:53;103605.13;;;-4.54;77.26
74778;BME280;63298;53.164;8.610;2024-01-11T00:49:18;103602.19;;;-4.50;76.86
74778;BME280;63298;53.164;8.610;2024-01-11T00:51:44;103601.97;;;-4.45;77.00
74778;BME280;63298;53.164;8.610;2024-01-11T00:54:09;103600.28;;;-4.48;76.49
74778;BME280;63298;53.164;8.610;2024-01-11T00:56:36;103609.19;;;-4.46;77.27
74778;BME280;63298;53.164;8.610;2024-01-11T00:59:03;103609.25;;;-4.47;77.44
74778;BME280;63298;53.164;8.610;2024-01-11T01:01:29;103605.63;;;-4.46;77.41
74778;BME280;63298;53.164;8.610;2024-01-11T01:03:54;103610.84;;;-4.43;77.25
74778;BME280;63298;53.164;8.610;2024-01-11T01:06:20;103594.91;;;-4.48;76.41
74778;BME280;63298;53.164;8.610;2024-01-11T01:08:45;103588.13;;;-4.38;76.82
74778;BME280;63298;53.164;8.610;2024-01-11T01:11:10;103591.19;;;-4.26;76.87
74778;BME280;63298;53.164;8.610;2024-01-11T01:13:36;103591.84;;;-4.21;76.84
74778;BME280;63298;53.164;8.610;2024-01-11T01:16:01;103576.03;;;-4.29;76.96
74778;BME280;63298;53.164;8.610;2024-01-11T01:18:26;103588.44;;;-4.25;76.46
74778;BME280;63298;53.164;8.610;2024-01-11T01:20:52;103589.31;;;-4.24;76.50
74778;BME280;63298;53.164;8.610;2024-01-11T01:23:17;103572.28;;;-4.25;77.24
74778;BME280;63298;53.164;8.610;2024-01-11T01:29:07;103574.16;;;-4.27;76.30
74778;BME280;63298;53.164;8.610;2024-01-11T01:31:35;103579.25;;;-4.21;77.08
74778;BME280;63298;53.164;8.610;2024-01-11T01:34:01;103587.06;;;-4.15;76.38
74778;BME280;63298;53.164;8.610;2024-01-11T01:36:26;103583.25;;;-4.11;76.54
74778;BME280;63298;53.164;8.610;2024-01-11T01:49:01;103541.28;;;-3.98;76.83
74778;BME280;63298;53.164;8.610;2024-01-11T01:51:29;103550.22;;;-3.97;76.54
74778;BME280;63298;53.164;8.610;2024-01-11T01:53:59;103567.13;;;-3.94;76.32
74778;BME280;63298;53.164;8.610;2024-01-11T01:56:25;103572.97;;;-4.03;76.65
74778;BME280;63298;53.164;8.610;2024-01-11T01:58:55;103561.59;;;-4.09;76.27
74778;BME280;63298;53.164;8.610;2024-01-11T02:01:23;103561.41;;;-4.05;76.50
74778;BME280;63298;53.164;8.610;2024-01-11T02:03:51;103562.34;;;-4.06;76.55
74778;BME280;63298;53.164;8.610;2024-01-11T02:06:22;103572.91;;;-4.01;76.61
74778;BME280;63298;53.164;8.610;2024-01-11T02:09:28;103578.22;;;-4.00;76.94
74778;BME280;63298;53.164;8.610;2024-01-11T02:11:54;103564.88;;;-4.03;76.46
74778;BME280;63298;53.164;8.610;2024-01-11T02:14:22;103568.06;;;-3.95;76.21
74778;BME280;63298;53.164;8.610;2024-01-11T02:20:14;103561.78;;;-4.12;76.92
74778;BME280;63298;53.164;8.610;2024-01-11T02:22:42;103579.09;;;-4.18;76.94
74778;BME280;63298;53.164;8.610;2024-01-11T02:25:08;103575.63;;;-4.20;76.51
74778;BME280;63298;53.164;8.610;2024-01-11T02:30:37;103578.75;;;-4.29;76.10
74778;BME280;63298;53.164;8.610;2024-01-11T02:33:05;103575.84;;;-4.43;76.66
74778;BME280;63298;53.164;8.610;2024-01-11T02:35:31;103589.84;;;-4.35;76.49
74778;BME280;63298;53.164;8.610;2024-01-11T02:37:57;103591.94;;;-4.42;76.54
74778;BME280;63298;53.164;8.610;2024-01-11T02:40:25;103592.22;;;-4.48;76.73
74778;BME280;63298;53.164;8.610;2024-01-11T02:42:51;103579.56;;;-4.46;77.27
74778;BME280;63298;53.164;8.610;2024-01-11T02:45:16;103564.13;;;-4.42;76.62
74778;BME280;63298;53.164;8.610;2024-01-11T02:47:45;103577.31;;;-4.36;77.34
74778;BME280;63298;53.164;8.610;2024-01-11T02:50:13;103578.97;;;-4.33;76.31
74778;BME280;63298;53.164;8.610;2024-01-11T02:52:38;103575.56;;;-4.37;76.76
74778;BME280;63298;53.164;8.610;2024-01-11T02:55:04;103574.31;;;-4.49;76.58
74778;BME280;63298;53.164;8.610;2024-01-11T02:57:30;103579.78;;;-4.50;76.61
74778;BME280;63298;53.164;8.610;2024-01-11T03:00:07;103552.53;;;-4.63;76.88
74778;BME280;63298;53.164;8.610;2024-01-11T03:02:33;103568.84;;;-4.47;76.91
74778;BME280;63298;53.164;8.610;2024-01-11T03:05:17;103574.97;;;-4.44;76.41
74778;BME280;63298;53.164;8.610;2024-01-11T03:07:45;103581.88;;;-4.38;76.93
74778;BME280;63298;53.164;8.610;2024-01-11T03:10:10;103596.81;;;-4.31;76.52
74778;BME280;63298;53.164;8.610;2024-01-11T03:12:39;103605.19;;;-4.37;76.34
74778;BME280;63298;53.164;8.610;2024-01-11T03:15:05;103607.09;;;-4.39;76.33
74778;BME280;63298;53.164;8.610;2024-01-11T03:17:30;103599.19;;;-4.44;76.81
74778;BME280;63298;53.164;8.610;2024-01-11T03:19:55;103584.22;;;-4.49;77.17
74778;BME280;63298;53.164;8.610;2024-01-11T03:22:21;103585.50;;;-4.58;76.47
74778;BME280;63298;53.164;8.610;2024-01-11T03:24:49;103577.53;;;-4.59;76.43
74778;BME280;63298;53.164;8.610;2024-01-11T03:27:15;103577.66;;;-4.62;76.89
74778;BME280;63298;53.164;8.610;2024-01-11T03:30:05;103602.97;;;-4.66;77.01
74778;BME280;63298;53.164;8.610;2024-01-11T03:32:34;103601.44;;;-4.72;76.84
74778;BME280;63298;53.164;8.610;2024-01-11T03:35:00;103585.69;;;-4.81;76.96
74778;BME280;63298;53.164;8.610;2024-01-11T03:37:26;103593.56;;;-4.76;77.18
74778;BME280;63298;53.164;8.610;2024-01-11T03:39:51;103591.91;;;-4.79;76.54
74778;BME280;63298;53.164;8.610;2024-01-11T03:42:16;103576.69;;;-4.80;76.58
74778;BME280;63298;53.164;8.610;2024-01-11T03:44:45;103580.16;;;-4.78;76.70
74778;BME280;63298;53.164;8.610;2024-01-11T03:47:13;103558.28;;;-4.89;77.43
74778;BME280;63298;53.164;8.610;2024-01-11T03:49:38;103585.75;;;-4.83;77.36
74778;BME280;63298;53.164;8.610;2024-01-11T03:52:04;103563.00;;;-4.94;77.61
74778;BME280;63298;53.164;8.610;2024-01-11T03:54:30;103561.31;;;-4.97;78.09
74778;BME280;63298;53.164;8.610;2024-01-11T03:56:55;103564.81;;;-4.95;78.18
74778;BME280;63298;53.164;8.610;2024-01-11T03:59:21;103563.88;;;-4.94;77.31
74778;BME280;63298;53.164;8.610;2024-01-11T04:01:46;103576.63;;;-4.78;78.00
74778;BME280;63298;53.164;8.610;2024-01-11T04:04:12;103577.13;;;-4.70;77.55
74778;BME280;63298;53.164;8.610;2024-01-11T04:09:59;103608.06;;;-4.79;78.44
74778;BME280;63298;53.164;8.610;2024-01-11T04:12:24;103619.88;;;-4.83;78.14
74778;BME280;63298;53.164;8.610;2024-01-11T04:14:50;103614.44;;;-4.82;79.31
74778;BME280;63298;53.164;8.610;2024-01-11T04:17:15;103621.38;;;-4.76;78.16
74778;BME280;63298;53.164;8.610;2024-01-11T04:19:41;103613.13;;;-4.73;78.18
74778;BME280;63298;53.164;8.610;2024-01-11T04:22:06;103622.69;;;-4.66;77.62
74778;BME280;63298;53.164;8.610;2024-01-11T04:24:32;103628.53;;;-4.56;78.08
74778;BME280;63298;53.164;8.610;2024-01-11T04:26:57;103625.47;;;-4.49;77.69
74778;BME280;63298;53.164;8.610;2024-01-11T04:29:22;103608.97;;;-4.41;77.80
74778;BME280;63298;53.164;8.610;2024-01-11T04:31:50;103596.81;;;-4.31;77.26
74778;BME280;63298;53.164;8.610;2024-01-11T04:34:15;103594.72;;;-4.24;76.92
74778;BME280;63298;53.164;8.610;2024-01-11T04:36:41;103595.28;;;-4.18;76.94
74778;BME280;63298;53.164;8.610;2024-01-11T04:39:06;103614.34;;;-4.04;76.85
74778;BME280;63298;53.164;8.610;2024-01-11T04:41:32;103619.72;;;-4.04;77.25
74778;BME280;63298;53.164;8.610;2024-01-11T04:43:58;103603.56;;;-4.04;76.93
74778;BME280;63298;53.164;8.610;2024-01-11T04:46:23;103603.25;;;-3.98;76.52
74778;BME280;63298;53.164;8.610;2024-01-11T04:48:49;103606.38;;;-3.88;76.44
74778;BME280;63298;53.164;8.610;2024-01-11T04:51:16;103584.88;;;-3.89;76.77
74778;BME280;63298;53.164;8.610;2024-01-11T04:53:57;103589.09;;;-3.84;76.75
74778;BME280;63298;53.164;8.610;2024-01-11T04:59:44;103584.22;;;-3.76;77.48
74778;BME280;63298;53.164;8.610;2024-01-11T05:02:09;103589.16;;;-3.67;76.21
74778;BME280;63298;53.164;8.610;2024-01-11T05:04:37;103571.22;;;-3.68;76.41
74778;BME280;63298;53.164;8.610;2024-01-11T05:07:11;103571.16;;;-3.66;76.88
74778;BME280;63298;53.164;8.610;2024-01-11T05:09:37;103569.22;;;-3.64;76.50
74778;BME280;63298;53.164;8.610;2024-01-11T05:12:30;103553.84;;;-3.62;76.95
74778;BME280;63298;53.164;8.610;2024-01-11T05:14:55;103527.13;;;-3.67;76.98
74778;BME280;63298;53.164;8.610;2024-01-11T05:17:21;103547.50;;;-3.61;76.51
74778;BME280;63298;53.164;8.610;2024-01-11T05:19:46;103525.31;;;-3.66;76.40
74778;BME280;63298;53.164;8.610;2024-01-11T05:22:17;103536.47;;;-3.57;76.62
74778;BME280;63298;53.164;8.610;2024-01-11T05:24:43;103541.00;;;-3.57;77.08
74778;BME280;63298;53.164;8.610;2024-01-11T05:27:08;103555.44;;;-3.58;77.42
74778;BME280;63298;53.164;8.610;2024-01-11T05:29:33;103558.13;;;-3.58;76.95
74778;BME280;63298;53.164;8.610;2024-01-11T05:31:59;103565.03;;;-3.53;77.05
74778;BME280;63298;53.164;8.610;2024-01-11T05:34:24;103531.88;;;-3.55;77.00
74778;BME280;63298;53.164;8.610;2024-01-11T05:36:50;103534.56;;;-3.55;77.04
74778;BME280;63298;53.164;8.610;2024-01-11T05:39:16;103553.84;;;-3.45;77.05
74778;BME280;63298;53.164;8.610;2024-01-11T05:41:44;103542.22;;;-3.45;76.82
74778;BME280;63298;53.164;8.610;2024-01-11T05:44:10;103526.78;;;-3.43;76.59
74778;BME280;63298;53.164;8.610;2024-01-11T05:46:35;103503.31;;;-3.41;76.39
74778;BME280;63298;53.164;8.610;2024-01-11T05:49:01;103500.44;;;-3.38;76.54
74778;BME280;63298;53.164;8.610;2024-01-11T05:51:26;103524.78;;;-3.40;76.92
74778;BME280;63298;53.164;8.610;2024-01-11T05:53:51;103531.81;;;-3.36;76.78
74778;BME280;63298;53.164;8.610;2024-01-11T05:56:18;103534.41;;;-3.34;77.33
74778;BME280;63298;53.164;8.610;2024-01-11T05:58:44;103525.59;;;-3.38;77.17
74778;BME280;63298;53.164;8.610;2024-01-11T06:01:09;103510.34;;;-3.39;77.42
74778;BME280;63298;53.164;8.610;2024-01-11T06:03:35;103502.13;;;-3.36;77.50
74778;BME280;63298;53.164;8.610;2024-01-11T06:06:01;103505.44;;;-3.31;77.58
74778;BME280;63298;53.164;8.610;2024-01-11T06:08:26;103495.44;;;-3.29;76.69
74778;BME280;63298;53.164;8.610;2024-01-11T06:17:35;103512.50;;;-3.28;77.07
74778;BME280;63298;53.164;8.610;2024-01-11T06:20:01;103519.66;;;-3.27;77.09
74778;BME280;63298;53.164;8.610;2024-01-11T06:22:26;103529.56;;;-3.28;77.54
74778;BME280;63298;53.164;8.610;2024-01-11T06:24:52;103529.56;;;-3.28;77.18
74778;BME280;63298;53.164;8.610;2024-01-11T06:27:17;103547.50;;;-3.27;77.55
74778;BME280;63298;53.164;8.610;2024-01-11T06:29:42;103551.72;;;-3.21;77.41
74778;BME280;63298;53.164;8.610;2024-01-11T06:32:08;103541.78;;;-3.21;77.21
74778;BME280;63298;53.164;8.610;2024-01-11T06:34:34;103541.63;;;-3.18;76.96
74778;BME280;63298;53.164;8.610;2024-01-11T06:37:00;103543.19;;;-3.14;77.11
74778;BME280;63298;53.164;8.610;2024-01-11T06:39:25;103539.38;;;-3.10;77.36
74778;BME280;63298;53.164;8.610;2024-01-11T06:41:50;103540.94;;;-3.06;76.93
74778;BME280;63298;53.164;8.610;2024-01-11T06:44:16;103531.19;;;-3.08;77.15
74778;BME280;63298;53.164;8.610;2024-01-11T06:46:41;103531.91;;;-3.05;77.81
74778;BME280;63298;53.164;8.610;2024-01-11T06:49:10;103528.06;;;-3.00;76.91
74778;BME280;63298;53.164;8.610;2024-01-11T06:51:35;103526.00;;;-2.95;77.32
74778;BME280;63298;53.164;8.610;2024-01-11T06:54:01;103517.91;;;-2.95;77.68
74778;BME280;63298;53.164;8.610;2024-01-11T06:56:26;103505.38;;;-2.96;77.15
74778;BME280;63298;53.164;8.610;2024-01-11T06:58:52;103509.78;;;-2.95;77.59
74778;BME280;63298;53.164;8.610;2024-01-11T07:01:18;103501.63;;;-2.94;77.37
74778;BME280;63298;53.164;8.610;2024-01-11T07:03:43;103508.59;;;-2.90;77.02
74778;BME280;63298;53.164;8.610;2024-01-11T07:06:09;103498.84;;;-2.92;77.31
74778;BME280;63298;53.164;8.610;2024-01-11T07:08:34;103521.84;;;-2.85;76.91
74778;BME280;63298;53.164;8.610;2024-01-11T07:11:03;103531.19;;;-2.75;76.91
74778;BME280;63298;53.164;8.610;2024-01-11T07:13:29;103513.22;;;-2.76;76.89
74778;BME280;63298;53.164;8.610;2024-01-11T07:15:55;103525.53;;;-2.71;76.97
74778;BME280;63298;53.164;8.610;2024-01-11T07:19:11;103519.25;;;-2.71;77.34
74778;BME280;63298;53.164;8.610;2024-01-11T07:28:16;103527.28;;;-2.54;77.65
74778;BME280;63298;53.164;8.610;2024-01-11T07:33:57;103488.69;;;-2.56;76.77
74778;BME280;63298;53.164;8.610;2024-01-11T07:39:28;103492.78;;;-2.49;76.67
74778;BME280;63298;53.164;8.610;2024-01-11T07:41:53;103505.97;;;-2.43;77.36
74778;BME280;63298;53.164;8.610;2024-01-11T07:44:18;103520.41;;;-2.44;77.28
74778;BME280;63298;53.164;8.610;2024-01-11T07:46:44;103514.59;;;-2.52;77.25
74778;BME280;63298;53.164;8.610;2024-01-11T07:49:09;103535.84;;;-2.46;77.05
74778;BME280;63298;53.164;8.610;2024-01-11T07:51:35;103538.53;;;-2.46;77.72
74778;BME280;63298;53.164;8.610;2024-01-11T07:57:45;103549.69;;;-2.36;76.64
74778;BME280;63298;53.164;8.610;2024-01-11T08:00:42;103547.00;;;-2.36;76.87
74778;BME280;63298;53.164;8.610;2024-01-11T08:06:45;103551.97;;;-2.29;77.07
74778;BME280;63298;53.164;8.610;2024-01-11T08:09:43;103531.22;;;-2.28;76.87
74778;BME280;63298;53.164;8.610;2024-01-11T08:12:35;103541.59;;;-2.21;76.88
74778;BME280;63298;53.164;8.610;2024-01-11T08:15:01;103543.88;;;-2.13;76.88
74778;BME280;63298;53.164;8.610;2024-01-11T08:17:26;103540.47;;;-2.17;77.02
74778;BME280;63298;53.164;8.610;2024-01-11T08:19:52;103538.47;;;-2.13;77.15
74778;BME280;63298;53.164;8.610;2024-01-11T08:22:17;103545.59;;;-2.12;76.79
74778;BME280;63298;53.164;8.610;2024-01-11T08:24:42;103543.00;;;-2.13;76.33
74778;BME280;63298;53.164;8.610;2024-01-11T08:27:11;103546.31;;;-2.08;77.01
74778;BME280;63298;53.164;8.610;2024-01-11T08:29:36;103545.38;;;-2.07;77.01
74778;BME280;63298;53.164;8.610;2024-01-11T08:32:02;103535.38;;;-2.07;77.07
74778;BME280;63298;53.164;8.610;2024-01-11T08:34:27;103531.84;;;-2.07;77.09
74778;BME280;63298;53.164;8.610;2024-01-11T08:40:34;103535.16;;;-2.02;77.14
74778;BME280;63298;53.164;8.610;2024-01-11T08:46:42;103540.91;;;-1.93;77.18
74778;BME280;63298;53.164;8.610;2024-01-11T08:49:07;103548.75;;;-1.88;77.20
74778;BME280;63298;53.164;8.610;2024-01-11T08:51:36;103555.50;;;-1.81;77.10
74778;BME280;63298;53.164;8.610;2024-01-11T08:54:04;103559.00;;;-1.79;77.12
74778;BME280;63298;53.164;8.610;2024-01-11T08:56:29;103544.53;;;-1.78;76.96
74778;BME280;63298;53.164;8.610;2024-01-11T09:02:07;103539.44;;;-1.68;76.80
74778;BME280;63298;53.164;8.610;2024-01-11T09:04:32;103545.53;;;-1.65;77.09
74778;BME280;63298;53.164;8.610;2024-01-11T09:06:58;103544.59;;;-1.64;77.33
74778;BME280;63298;53.164;8.610;2024-01-11T09:09:23;103542.91;;;-1.66;76.90
74778;BME280;63298;53.164;8.610;2024-01-11T09:15:27;103537.94;;;-1.58;77.07
74778;BME280;63298;53.164;8.610;2024-01-11T09:21:11;103541.13;;;-1.52;77.21
74778;BME280;63298;53.164;8.610;2024-01-11T09:23:39;103546.38;;;-1.49;77.21
74778;BME280;63298;53.164;8.610;2024-01-11T09:26:05;103551.41;;;-1.43;77.18
74778;BME280;63298;53.164;8.610;2024-01-11T09:28:30;103540.75;;;-1.46;77.13
74778;BME280;63298;53.164;8.610;2024-01-11T09:30:55;103547.38;;;-1.36;77.13
74778;BME280;63298;53.164;8.610;2024-01-11T09:33:23;103535.00;;;-1.40;77.64
74778;BME280;63298;53.164;8.610;2024-01-11T09:35:48;103530.34;;;-1.38;77.15
74778;BME280;63298;53.164;8.610;2024-01-11T09:38:14;103539.84;;;-1.31;77.53
74778;BME280;63298;53.164;8.610;2024-01-11T09:40:39;103550.09;;;-1.21;77.61
74778;BME280;63298;53.164;8.610;2024-01-11T09:43:09;103538.41;;;-1.22;77.35
74778;BME280;63298;53.164;8.610;2024-01-11T09:45:37;103542.56;;;-1.16;78.69
74778;BME280;63298;53.164;8.610;2024-01-11T09:48:06;103528.25;;;-1.18;77.53
74778;BME280;63298;53.164;8.610;2024-01-11T09:50:32;103531.81;;;-1.18;77.58
74778;BME280;63298;53.164;8.610;2024-01-11T09:52:57;103535.91;;;-1.11;77.54
74778;BME280;63298;53.164;8.610;2024-01-11T09:55:23;103539.88;;;-1.02;77.02
74778;BME280;63298;53.164;8.610;2024-01-11T09:57:55;103539.50;;;-0.96;76.96
74778;BME280;63298;53.164;8.610;2024-01-11T10:00:22;103516.09;;;-0.97;77.19
74778;BME280;63298;53.164;8.610;2024-01-11T10:02:48;103504.00;;;-0.92;77.15
74778;BME280;63298;53.164;8.610;2024-01-11T10:05:16;103509.91;;;-0.85;77.65
74778;BME280;63298;53.164;8.610;2024-01-11T10:07:42;103499.25;;;-0.88;77.70
74778;BME280;63298;53.164;8.610;2024-01-11T10:10:11;103513.19;;;-0.80;78.12
74778;BME280;63298;53.164;8.610;2024-01-11T10:12:38;103507.56;;;-0.77;77.64
74778;BME280;63298;53.164;8.610;2024-01-11T10:15:08;103515.41;;;-0.72;77.71
74778;BME280;63298;53.164;8.610;2024-01-11T10:17:34;103505.66;;;-0.75;78.46
74778;BME280;63298;53.164;8.610;2024-01-11T10:20:02;103501.75;;;-0.71;77.71
74778;BME280;63298;53.164;8.610;2024-01-11T10:22:28;103493.72;;;-0.72;78.73
74778;BME280;63298;53.164;8.610;2024-01-11T10:25:13;103502.63;;;-0.70;78.57
74778;BME280;63298;53.164;8.610;2024-01-11T10:27:42;103515.69;;;-0.63;80.27
74778;BME280;63298;53.164;8.610;2024-01-11T10:30:13;103507.56;;;-0.63;78.51
74778;BME280;63298;53.164;8.610;2024-01-11T10:32:53;103502.53;;;-0.55;78.31
74778;BME280;63298;53.164;8.610;2024-01-11T10:35:19;103491.69;;;-0.55;77.89
74778;BME280;63298;53.164;8.610;2024-01-11T10:41:55;103493.97;;;-0.49;77.75
74778;BME280;63298;53.164;8.610;2024-01-11T10:44:22;103490.66;;;-0.39;78.04
74778;BME280;63298;53.164;8.610;2024-01-11T10:46:57;103481.47;;;-0.37;77.59
74778;BME280;63298;53.164;8.610;2024-01-11T10:49:25;103472.47;;;-0.37;77.57
74778;BME280;63298;53.164;8.610;2024-01-11T10:52:02;103479.88;;;-0.27;78.05
74778;BME280;63298;53.164;8.610;2024-01-11T10:54:31;103482.28;;;-0.22;77.95
74778;BME280;63298;53.164;8.610;2024-01-11T10:57:02;103490.69;;;-0.13;77.60
74778;BME280;63298;53.164;8.610;2024-01-11T10:59:28;103484.28;;;-0.12;77.48
74778;BME280;63298;53.164;8.610;2024-01-11T11:01:58;103484.88;;;-0.07;77.72
74778;BME280;63298;53.164;8.610;2024-01-11T11:04:32;103471.94;;;-0.03;78.10
74778;BME280;63298;53.164;8.610;2024-01-11T11:07:12;103468.19;;;-0.01;78.07
74778;BME280;63298;53.164;8.610;2024-01-11T11:09:40;103461.75;;;0.00;79.03
74778;BME280;63298;53.164;8.610;2024-01-11T11:12:21;103451.78;;;0.01;78.86
74778;BME280;63298;53.164;8.610;2024-01-11T11:14:50;103465.72;;;0.09;78.56
74778;BME280;63298;53.164;8.610;2024-01-11T11:17:19;103457.44;;;0.11;78.03
74778;BME280;63298;53.164;8.610;2024-01-11T11:19:47;103466.91;;;0.18;78.30
74778;BME280;63298;53.164;8.610;2024-01-11T11:22:13;103456.16;;;0.16;78.19
74778;BME280;63298;53.164;8.610;2024-01-11T11:24:46;103457.69;;;0.20;78.27
74778;BME280;63298;53.164;8.610;2024-01-11T11:27:16;103453.81;;;0.24;77.73
74778;BME280;63298;53.164;8.610;2024-01-11T11:29:47;103460.75;;;0.28;78.27
74778;BME280;63298;53.164;8.610;2024-01-11T11:32:14;103461.41;;;0.32;78.02
74778;BME280;63298;53.164;8.610;2024-01-11T11:34:51;103450.56;;;0.32;78.39
74778;BME280;63298;53.164;8.610;2024-01-11T11:37:43;103444.25;;;0.31;79.14
74778;BME280;63298;53.164;8.610;2024-01-11T11:40:14;103442.50;;;0.30;79.04
74778;BME280;63298;53.164;8.610;2024-01-11T11:42:42;103443.28;;;0.32;78.19
74778;BME280;63298;53.164;8.610;2024-01-11T11:45:24;103452.19;;;0.34;78.84
74778;BME280;63298;53.164;8.610;2024-01-11T11:47:50;103447.75;;;0.33;78.92
74778;BME280;63298;53.164;8.610;2024-01-11T11:50:34;103447.50;;;0.36;78.71
74778;BME280;63298;53.164;8.610;2024-01-11T11:52:59;103455.78;;;0.48;78.65
74778;BME280;63298;53.164;8.610;2024-01-11T11:55:34;103454.28;;;0.43;79.09
74778;BME280;63298;53.164;8.610;2024-01-11T11:58:01;103460.44;;;0.46;78.76
74778;BME280;63298;53.164;8.610;2024-01-11T12:00:30;103468.41;;;0.49;79.14
74778;BME280;63298;53.164;8.610;2024-01-11T12:03:00;103466.44;;;0.51;78.91
74778;BME280;63298;53.164;8.610;2024-01-11T12:05:30;103459.94;;;0.53;78.44
74778;BME280;63298;53.164;8.610;2024-01-11T12:07:55;103458.81;;;0.56;78.88
74778;BME280;63298;53.164;8.610;2024-01-11T12:10:32;103456.13;;;0.56;79.00
74778;BME280;63298;53.164;8.610;2024-01-11T12:13:00;103465.78;;;0.60;79.39
74778;BME280;63298;53.164;8.610;2024-01-11T12:15:44;103447.88;;;0.57;78.96
74778;BME280;63298;53.164;8.610;2024-01-11T12:18:10;103457.97;;;0.68;79.99
74778;BME280;63298;53.164;8.610;2024-01-11T12:20:42;103437.44;;;0.64;78.65
74778;BME280;63298;53.164;8.610;2024-01-11T12:23:10;103450.25;;;0.74;78.56
74778;BME280;63298;53.164;8.610;2024-01-11T12:25:40;103445.91;;;0.72;78.90
74778;BME280;63298;53.164;8.610;2024-01-11T12:28:14;103455.38;;;0.79;78.43
74778;BME280;63298;53.164;8.610;2024-01-11T12:30:53;103453.63;;;0.78;79.31
74778;BME280;63298;53.164;8.610;2024-01-11T12:33:22;103430.16;;;0.77;78.86
74778;BME280;63298;53.164;8.610;2024-01-11T12:36:02;103436.03;;;0.83;78.76
74778;BME280;63298;53.164;8.610;2024-01-11T12:38:27;103415.38;;;0.81;78.97
74778;BME280;63298;53.164;8.610;2024-01-11T12:40:53;103409.50;;;0.87;78.95
74778;BME280;63298;53.164;8.610;2024-01-11T12:43:27;103393.31;;;0.85;78.79
74778;BME280;63298;53.164;8.610;2024-01-11T12:45:55;103392.53;;;0.96;78.50
74778;BME280;63298;53.164;8.610;2024-01-11T12:48:21;103396.22;;;0.95;78.96
74778;BME280;63298;53.164;8.610;2024-01-11T12:50:55;103399.38;;;1.02;78.42
74778;BME280;63298;53.164;8.610;2024-01-11T12:53:20;103390.25;;;1.03;78.24
74778;BME280;63298;53.164;8.610;2024-01-11T12:55:49;103396.56;;;1.03;78.87
74778;BME280;63298;53.164;8.610;2024-01-11T12:58:27;103399.47;;;1.00;79.36
74778;BME280;63298;53.164;8.610;2024-01-11T13:00:52;103388.59;;;1.00;79.28
74778;BME280;63298;53.164;8.610;2024-01-11T13:03:19;103402.53;;;1.08;78.94
74778;BME280;63298;53.164;8.610;2024-01-11T13:05:45;103395.56;;;1.04;79.43
74778;BME280;63298;53.164;8.610;2024-01-11T13:08:10;103394.47;;;1.07;79.86
74778;BME280;63298;53.164;8.610;2024-01-11T13:10:39;103387.53;;;1.03;79.68
74778;BME280;63298;53.164;8.610;2024-01-11T13:13:07;103383.59;;;1.07;78.93
74778;BME280;63298;53.164;8.610;2024-01-11T13:15:41;103398.88;;;1.20;78.90
74778;BME280;63298;53.164;8.610;2024-01-11T13:18:09;103383.78;;;1.16;79.32
74778;BME280;63298;53.164;8.610;2024-01-11T13:20:35;103387.03;;;1.21;78.96
74778;BME280;63298;53.164;8.610;2024-01-11T13:23:17;103381.38;;;1.24;79.53
74778;BME280;63298;53.164;8.610;2024-01-11T13:25:46;103378.66;;;1.24;79.21
74778;BME280;63298;53.164;8.610;2024-01-11T13:28:22;103365.81;;;1.26;79.21
74778;BME280;63298;53.164;8.610;2024-01-11T13:30:50;103365.47;;;1.31;79.04
74778;BME280;63298;53.164;8.610;2024-01-11T13:33:15;103364.59;;;1.30;79.04
74778;BME280;63298;53.164;8.610;2024-01-11T13:35:41;103372.53;;;1.34;79.07
74778;BME280;63298;53.164;8.610;2024-01-11T13:38:21;103374.94;;;1.38;79.40
74778;BME280;63298;53.164;8.610;2024-01-11T13:40:46;103365.13;;;1.36;79.58
74778;BME280;63298;53.164;8.610;2024-01-11T13:43:12;103368.63;;;1.38;79.31
74778;BME280;63298;53.164;8.610;2024-01-11T13:45:40;103370.22;;;1.40;79.24
74778;BME280;63298;53.164;8.610;2024-01-11T13:48:09;103364.88;;;1.39;79.38
74778;BME280;63298;53.164;8.610;2024-01-11T13:50:37;103362.16;;;1.39;79.08
74778;BME280;63298;53.164;8.610;2024-01-11T13:56:03;103357.38;;;1.42;79.56
74778;BME280;63298;53.164;8.610;2024-01-11T14:01:34;103336.50;;;1.43;78.95
74778;BME280;63298;53.164;8.610;2024-01-11T14:04:04;103347.13;;;1.46;79.78
74778;BME280;63298;53.164;8.610;2024-01-11T14:06:40;103347.91;;;1.48;79.58
74778;BME280;63298;53.164;8.610;2024-01-11T14:09:08;103352.84;;;1.54;79.64
74778;BME280;63298;53.164;8.610;2024-01-11T14:11:54;103344.06;;;1.50;79.63
74778;BME280;63298;53.164;8.610;2024-01-11T14:14:20;103363.53;;;1.57;79.99
74778;BME280;63298;53.164;8.610;2024-01-11T14:16:46;103362.53;;;1.58;80.19
74778;BME280;63298;53.164;8.610;2024-01-11T14:19:14;103359.31;;;1.53;79.87
74778;BME280;63298;53.164;8.610;2024-01-11T14:21:48;103368.44;;;1.52;79.87